createdAt,value
2019-01-02T00:01:01.199Z,99.90
2019-01-02T00:03:34.932Z,99.90
2019-01-02T00:06:04.666Z,99.90
2019-01-02T00:08:34.386Z,99.90
2019-01-02T00:11:04.107Z,99.90
2019-01-02T00:13:34.275Z,99.90
2019-01-02T00:16:04.150Z,99.90
2019-01-02T00:18:34.111Z,99.90
2019-01-02T00:21:03.998Z,99.90
2019-01-02T00:23:34.082Z,99.90
2019-01-02T00:26:03.885Z,99.90
2019-01-02T00:28:33.639Z,99.90
2019-01-02T00:31:03.806Z,99.90
2019-01-02T00:33:33.527Z,99.90
2019-01-02T00:36:03.651Z,99.90
2019-01-02T00:38:33.366Z,99.90
2019-01-02T00:41:03.593Z,99.90
2019-01-02T00:43:33.470Z,99.90
2019-01-02T00:46:03.622Z,99.90
2019-01-02T00:48:33.351Z,99.90
2019-01-02T00:51:03.091Z,99.90
2019-01-02T00:53:32.777Z,99.90
2019-01-02T00:56:02.515Z,99.90
2019-01-02T00:58:32.255Z,99.90
2019-01-02T01:01:02.498Z,99.90
2019-01-02T01:03:32.203Z,99.90
2019-01-02T01:06:02.525Z,99.90
2019-01-02T01:08:32.223Z,99.90
2019-01-02T01:11:02.386Z,99.90
2019-01-02T01:13:32.114Z,99.90
2019-01-02T01:16:02.386Z,99.90
2019-01-02T01:18:32.108Z,99.90
2019-01-02T01:21:02.274Z,99.90
2019-01-02T01:23:34.001Z,99.90
2019-01-02T01:26:03.835Z,99.90
2019-01-02T01:28:34.087Z,99.90
2019-01-02T01:31:03.850Z,99.90
2019-01-02T01:33:33.842Z,99.90
2019-01-02T01:36:03.651Z,99.90
2019-01-02T01:38:34.489Z,99.90
2019-01-02T01:41:05.485Z,99.90
2019-01-02T01:43:35.437Z,99.90
2019-01-02T01:46:05.285Z,99.90
2019-01-02T01:48:35.370Z,99.90
2019-01-02T01:51:05.111Z,99.90
2019-01-02T01:53:34.824Z,99.90
2019-01-02T01:56:04.971Z,99.90
2019-01-02T01:58:34.895Z,99.90
2019-01-02T02:01:05.098Z,99.90
2019-01-02T02:03:34.862Z,99.90
2019-01-02T02:06:04.618Z,99.90
2019-01-02T02:08:34.686Z,99.90
2019-01-02T02:11:04.564Z,99.90
2019-01-02T02:13:34.350Z,99.90
2019-01-02T02:16:04.472Z,99.90
2019-01-02T02:18:34.227Z,99.90
2019-01-02T02:21:04.326Z,99.90
2019-01-02T02:23:34.030Z,99.90
2019-01-02T02:26:03.775Z,99.90
2019-01-02T02:28:34.089Z,99.90
2019-01-02T02:31:03.911Z,99.90
2019-01-02T02:33:33.955Z,99.90
2019-01-02T02:36:04.150Z,99.90
2019-01-02T02:38:34.297Z,99.90
2019-01-02T02:41:04.452Z,99.90
2019-01-02T02:43:34.575Z,99.90
2019-01-02T02:46:04.281Z,99.90
2019-01-02T02:48:34.413Z,99.90
2019-01-02T02:51:04.736Z,99.90
2019-01-02T02:53:34.835Z,99.90
2019-01-02T02:56:05.152Z,99.90
2019-01-02T02:58:35.367Z,99.90
2019-01-02T03:01:05.583Z,99.90
2019-01-02T03:03:35.766Z,99.90
2019-01-02T03:06:05.494Z,99.90
2019-01-02T03:08:35.253Z,99.90
2019-01-02T03:11:05.112Z,99.90
2019-01-02T03:13:35.326Z,99.90
2019-01-02T03:16:05.327Z,99.90
2019-01-02T03:18:35.521Z,99.90
2019-01-02T03:21:05.231Z,99.90
2019-01-02T03:23:34.925Z,99.90
2019-01-02T03:26:04.661Z,99.90
2019-01-02T03:28:34.778Z,99.90
2019-01-02T03:31:04.916Z,99.90
2019-01-02T03:33:34.938Z,99.90
2019-01-02T03:36:04.802Z,99.90
2019-01-02T03:38:34.507Z,99.90
2019-01-02T03:41:04.363Z,99.90
2019-01-02T03:43:34.062Z,99.90
2019-01-02T03:46:03.758Z,99.90
2019-01-02T03:48:35.520Z,99.90
2019-01-02T03:51:05.503Z,99.90
2019-01-02T03:53:35.229Z,99.90
2019-01-02T03:56:04.957Z,99.90
2019-01-02T03:58:34.651Z,99.90
2019-01-02T04:01:04.601Z,99.90
2019-01-02T04:03:34.378Z,99.90
2019-01-02T04:06:04.085Z,99.90
2019-01-02T04:08:33.838Z,99.90
2019-01-02T04:11:03.802Z,99.90
2019-01-02T04:13:33.479Z,99.90
2019-01-02T04:16:03.261Z,99.90
2019-01-02T04:18:33.031Z,99.90
2019-01-02T04:21:02.814Z,99.90
2019-01-02T04:23:32.558Z,99.90
2019-01-02T04:26:02.401Z,99.90
2019-01-02T04:28:32.111Z,99.90
2019-01-02T04:31:01.919Z,99.90
2019-01-02T04:33:31.725Z,99.90
2019-01-02T04:36:01.459Z,99.90
2019-01-02T04:38:31.196Z,99.90
2019-01-02T04:41:00.932Z,99.90
2019-01-02T04:43:30.598Z,99.90
2019-01-02T04:46:00.436Z,99.90
2019-01-02T04:48:30.161Z,99.90
2019-01-02T04:51:00.010Z,99.90
2019-01-02T04:53:29.705Z,99.90
2019-01-02T04:55:59.451Z,99.90
2019-01-02T04:58:29.123Z,99.90
2019-01-02T05:00:58.830Z,99.90
2019-01-02T05:03:28.623Z,99.90
2019-01-02T05:05:58.320Z,99.90
2019-01-02T05:08:28.026Z,99.90
2019-01-02T05:10:57.795Z,99.90
2019-01-02T05:13:27.525Z,99.90
2019-01-02T05:15:57.298Z,99.90
2019-01-02T05:18:27.070Z,99.90
2019-01-02T05:20:56.775Z,99.90
2019-01-02T05:23:26.478Z,99.90
2019-01-02T05:25:56.267Z,99.50
2019-01-02T05:28:25.945Z,99.90
2019-01-02T05:30:55.720Z,99.90
2019-01-02T05:33:25.453Z,99.60
2019-01-02T05:35:55.206Z,99.90
2019-01-02T05:38:24.905Z,98.50
2019-01-02T05:40:54.742Z,96.90
2019-01-02T05:43:24.433Z,97.80
2019-01-02T05:45:54.119Z,95.90
2019-01-02T05:48:23.886Z,95.20
2019-01-02T05:50:53.595Z,96.00
2019-01-02T05:53:23.297Z,93.30
2019-01-02T05:55:53.084Z,95.50
2019-01-02T05:58:22.895Z,94.20
2019-01-02T06:00:52.575Z,94.40
2019-01-02T06:03:22.698Z,93.70
2019-01-02T06:05:52.422Z,93.50
2019-01-02T06:08:22.183Z,93.40
2019-01-02T06:10:51.915Z,94.10
2019-01-02T06:13:21.623Z,93.80
2019-01-02T06:15:51.409Z,93.40
2019-01-02T06:18:21.203Z,94.40
2019-01-02T06:20:50.871Z,96.30
2019-01-02T06:23:20.617Z,92.80
2019-01-02T06:25:50.395Z,94.30
2019-01-02T06:28:20.088Z,93.30
2019-01-02T06:30:49.776Z,92.80
2019-01-02T06:33:19.658Z,93.20
2019-01-02T06:35:49.402Z,95.50
2019-01-02T06:38:19.362Z,95.10
2019-01-02T06:40:49.121Z,95.80
2019-01-02T06:43:18.823Z,94.10
2019-01-02T06:45:48.533Z,95.60
2019-01-02T06:48:18.317Z,94.90
2019-01-02T06:50:48.091Z,95.60
2019-01-02T06:53:17.921Z,95.30
2019-01-02T06:55:47.767Z,94.80
2019-01-02T06:58:17.526Z,94.20
2019-01-02T07:00:47.218Z,93.80
2019-01-02T07:03:19.347Z,92.50
2019-01-02T07:05:49.071Z,93.40
2019-01-02T07:08:18.960Z,94.00
2019-01-02T07:10:48.757Z,93.60
2019-01-02T07:13:18.480Z,94.60
2019-01-02T07:15:48.206Z,93.70
2019-01-02T07:18:21.099Z,97.70
2019-01-02T07:20:50.941Z,95.20
2019-01-02T07:23:20.731Z,94.60
2019-01-02T07:25:50.480Z,94.60
2019-01-02T07:28:20.169Z,94.20
2019-01-02T07:30:49.880Z,95.20
2019-01-02T07:33:20.874Z,97.10
2019-01-02T07:36:43.771Z,99.90
2019-01-02T07:39:56.328Z,99.90
2019-01-02T07:43:01.395Z,99.90
2019-01-02T07:46:16.394Z,99.90
2019-01-02T07:49:38.463Z,99.90
2019-01-02T07:52:51.329Z,99.90
2019-01-02T07:55:49.094Z,99.90
2019-01-02T07:58:53.363Z,99.90
2019-01-02T08:01:49.064Z,99.90
2019-01-02T08:05:01.621Z,99.90
2019-01-02T08:08:07.416Z,99.90
2019-01-02T08:11:02.075Z,99.90
2019-01-02T08:14:20.813Z,99.90
2019-01-02T08:17:31.681Z,99.90
2019-01-02T08:20:56.663Z,99.90
2019-01-02T08:23:49.680Z,99.90
2019-01-02T08:27:01.194Z,99.90
2019-01-02T08:30:32.996Z,99.90
2019-01-02T08:33:32.814Z,99.90
2019-01-02T08:36:52.575Z,99.90
2019-01-02T08:40:24.275Z,99.90
2019-01-02T08:43:20.530Z,99.90
2019-01-02T08:46:24.920Z,99.90
2019-01-02T08:49:30.089Z,99.90
2019-01-02T08:52:21.658Z,99.90
2019-01-02T08:55:25.618Z,99.90
2019-01-02T08:58:34.191Z,99.90
2019-01-02T09:02:09.163Z,99.90
2019-01-02T09:05:26.450Z,99.90
2019-01-02T09:08:48.288Z,99.90
2019-01-02T09:12:00.738Z,99.90
2019-01-02T09:15:00.623Z,99.90
2019-01-02T09:18:08.628Z,99.90
2019-01-02T09:21:15.982Z,99.90
2019-01-02T09:24:28.118Z,99.90
2019-01-02T09:27:47.983Z,99.90
2019-01-02T09:30:55.565Z,99.90
2019-01-02T09:34:12.234Z,99.90
2019-01-02T09:37:31.119Z,99.90
2019-01-02T09:40:28.460Z,99.90
2019-01-02T09:43:34.209Z,99.90
2019-01-02T09:47:14.787Z,99.90
2019-01-02T09:50:30.458Z,99.90
2019-01-02T09:53:37.481Z,99.90
2019-01-02T09:57:12.306Z,99.90
2019-01-02T10:00:41.331Z,99.90
2019-01-02T10:03:51.141Z,99.90
2019-01-02T10:07:07.075Z,99.90
2019-01-02T10:10:13.443Z,99.90
2019-01-02T10:13:39.253Z,99.90
2019-01-02T10:16:44.922Z,99.90
2019-01-02T10:19:55.659Z,99.90
2019-01-02T10:23:19.971Z,99.90
2019-01-02T10:26:29.956Z,99.90
2019-01-02T10:29:47.651Z,99.90
2019-01-02T10:32:58.171Z,99.90
2019-01-02T10:35:52.694Z,99.90
2019-01-02T10:39:02.364Z,99.90
2019-01-02T10:42:21.384Z,99.90
2019-01-02T10:45:27.542Z,99.90
2019-01-02T10:48:06.155Z,99.90
2019-01-02T10:50:52.118Z,99.90
2019-01-02T10:53:59.629Z,99.90
2019-01-02T10:56:54.906Z,99.90
2019-01-02T11:00:08.541Z,99.90
2019-01-02T11:03:21.902Z,99.90
2019-01-02T11:06:44.968Z,99.90
2019-01-02T11:10:00.923Z,99.90
2019-01-02T11:13:06.827Z,99.90
2019-01-02T11:16:15.767Z,99.90
2019-01-02T11:19:21.939Z,99.90
2019-01-02T11:22:29.802Z,99.90
2019-01-02T11:25:41.969Z,99.90
2019-01-02T11:28:48.749Z,99.90
2019-01-02T11:31:57.805Z,99.90
2019-01-02T11:35:03.543Z,99.90
2019-01-02T11:38:08.699Z,99.90
2019-01-02T11:41:21.612Z,99.90
2019-01-02T11:44:26.073Z,99.90
2019-01-02T11:46:55.826Z,99.90
2019-01-02T11:49:25.553Z,99.90
2019-01-02T11:51:55.326Z,99.90
2019-01-02T11:54:25.091Z,99.90
2019-01-02T11:56:54.803Z,99.90
2019-01-02T11:59:24.541Z,96.50
2019-01-02T12:01:54.290Z,99.30
2019-01-02T12:04:23.968Z,96.90
2019-01-02T12:06:53.766Z,99.20
2019-01-02T12:09:23.708Z,96.80
2019-01-02T12:11:53.462Z,96.50
2019-01-02T12:14:23.244Z,94.70
2019-01-02T12:16:52.977Z,96.20
2019-01-02T12:19:22.716Z,97.70
2019-01-02T12:21:52.439Z,97.80
2019-01-02T12:24:22.221Z,97.10
2019-01-02T12:26:51.965Z,97.60
2019-01-02T12:29:21.763Z,98.60
2019-01-02T12:31:51.538Z,98.50
2019-01-02T12:34:21.239Z,92.70
2019-01-02T12:36:50.917Z,93.40
2019-01-02T12:39:20.763Z,95.70
2019-01-02T12:41:50.509Z,95.90
2019-01-02T12:44:20.319Z,94.70
2019-01-02T12:46:50.127Z,95.30
2019-01-02T12:49:19.839Z,98.80
2019-01-02T12:51:49.654Z,98.60
2019-01-02T12:54:19.418Z,97.00
2019-01-02T12:56:49.102Z,92.70
2019-01-02T12:59:26.657Z,93.40
2019-01-02T13:02:27.578Z,95.40
2019-01-02T13:05:38.034Z,91.70
2019-01-02T13:09:00.135Z,91.60
2019-01-02T13:11:51.875Z,92.20
2019-01-02T13:15:15.124Z,91.60
2019-01-02T13:18:13.817Z,89.20
2019-01-02T13:21:17.652Z,84.20
2019-01-02T13:24:16.528Z,87.90
2019-01-02T13:27:20.871Z,85.30
2019-01-02T13:30:22.787Z,83.70
2019-01-02T13:33:28.046Z,83.80
2019-01-02T13:36:19.897Z,83.40
2019-01-02T13:39:34.730Z,88.50
2019-01-02T13:42:48.191Z,87.70
2019-01-02T13:45:36.097Z,86.60
2019-01-02T13:48:50.787Z,86.70
2019-01-02T13:51:29.508Z,87.40
2019-01-02T13:53:59.271Z,88.50
2019-01-02T13:56:29.529Z,84.70
2019-01-02T13:58:59.300Z,84.30
2019-01-02T14:01:29.106Z,85.00
2019-01-02T14:04:01.814Z,86.30
2019-01-02T14:06:31.670Z,91.10
2019-01-02T14:09:01.427Z,86.70
2019-01-02T14:11:41.838Z,90.00
2019-01-02T14:14:08.879Z,87.50
2019-01-02T14:16:38.847Z,89.00
2019-01-02T14:19:08.583Z,92.10
2019-01-02T14:21:38.334Z,90.00
2019-01-02T14:24:08.050Z,91.10
2019-01-02T14:26:37.758Z,91.90
2019-01-02T14:29:07.521Z,91.20
2019-01-02T14:31:38.760Z,90.40
2019-01-02T14:34:08.748Z,88.30
2019-01-02T14:36:38.565Z,90.10
2019-01-02T14:39:08.760Z,89.60
2019-01-02T14:41:38.497Z,89.70
2019-01-02T14:44:08.259Z,90.40
2019-01-02T14:46:37.973Z,90.00
2019-01-02T14:49:07.739Z,90.30
2019-01-02T14:51:37.492Z,91.90
2019-01-02T14:54:07.346Z,91.70
2019-01-02T14:56:37.242Z,89.30
2019-01-02T14:59:07.107Z,83.90
2019-01-02T15:01:36.847Z,85.30
2019-01-02T15:04:06.638Z,84.20
2019-01-02T15:06:36.576Z,87.80
2019-01-02T15:09:08.703Z,83.90
2019-01-02T15:11:44.648Z,84.40
2019-01-02T15:14:16.028Z,80.80
2019-01-02T15:16:45.908Z,81.10
2019-01-02T15:19:15.610Z,84.60
2019-01-02T15:21:45.319Z,83.80
2019-01-02T15:24:15.078Z,81.80
2019-01-02T15:26:44.827Z,80.80
2019-01-02T15:29:14.589Z,84.50
2019-01-02T15:31:44.463Z,82.60
2019-01-02T15:34:14.194Z,85.40
2019-01-02T15:36:43.887Z,82.00
2019-01-02T15:39:13.702Z,81.30
2019-01-02T15:41:43.586Z,80.50
2019-01-02T15:44:13.274Z,81.00
2019-01-02T15:46:43.080Z,75.30
2019-01-02T15:49:12.834Z,76.40
2019-01-02T15:51:42.518Z,76.40
2019-01-02T15:54:12.302Z,75.20
2019-01-02T15:56:42.035Z,74.20
2019-01-02T15:59:11.765Z,71.80
2019-01-02T16:01:41.540Z,65.60
2019-01-02T16:04:11.266Z,66.70
2019-01-02T16:06:40.955Z,64.00
2019-01-02T16:09:10.932Z,64.40
2019-01-02T16:11:40.666Z,64.10
2019-01-02T16:14:10.483Z,64.30
2019-01-02T16:16:40.977Z,64.30
2019-01-02T16:19:10.673Z,64.50
2019-01-02T16:21:40.555Z,65.50
2019-01-02T16:24:10.374Z,67.00
2019-01-02T16:26:40.233Z,66.90
2019-01-02T16:29:18.349Z,68.80
2019-01-02T16:31:48.874Z,72.30
2019-01-02T16:34:19.212Z,72.90
2019-01-02T16:36:49.233Z,70.10
2019-01-02T16:39:19.212Z,73.40
2019-01-02T16:41:49.234Z,75.50
2019-01-02T16:44:19.180Z,74.30
2019-01-02T16:46:48.941Z,75.30
2019-01-02T16:49:18.786Z,75.00
2019-01-02T16:51:48.503Z,74.10
2019-01-02T16:54:18.202Z,76.90
2019-01-02T16:56:48.340Z,74.10
2019-01-02T16:59:18.098Z,73.40
2019-01-02T17:01:48.119Z,73.30
2019-01-02T17:04:17.844Z,82.10
2019-01-02T17:06:47.655Z,83.10
2019-01-02T17:09:19.259Z,81.70
2019-01-02T17:11:49.718Z,83.00
2019-01-02T17:14:19.517Z,77.20
2019-01-02T17:16:49.252Z,66.80
2019-01-02T17:19:19.591Z,80.90
2019-01-02T17:21:49.283Z,87.80
2019-01-02T17:24:18.994Z,81.20
2019-01-02T17:26:48.731Z,87.80
2019-01-02T17:29:18.454Z,85.10
2019-01-02T17:31:48.250Z,85.40
2019-01-02T17:34:18.173Z,85.30
2019-01-02T17:36:47.907Z,76.80
2019-01-02T17:39:17.683Z,74.50
2019-01-02T17:41:47.466Z,74.40
2019-01-02T17:44:18.869Z,73.90
2019-01-02T17:46:48.635Z,68.40
2019-01-02T17:49:18.383Z,68.70
2019-01-02T17:51:48.151Z,69.20
2019-01-02T17:54:17.896Z,70.20
2019-01-02T17:56:47.684Z,73.50
2019-01-02T17:59:17.402Z,76.50
2019-01-02T18:01:47.216Z,81.40
2019-01-02T18:04:17.055Z,87.20
2019-01-02T18:06:46.800Z,87.60
2019-01-02T18:09:16.520Z,86.20
2019-01-02T18:11:46.292Z,89.10
2019-01-02T18:14:16.074Z,91.50
2019-01-02T18:16:45.788Z,92.10
2019-01-02T18:19:15.614Z,92.40
2019-01-02T18:21:45.355Z,90.40
2019-01-02T18:24:15.062Z,90.40
2019-01-02T18:26:44.820Z,90.00
2019-01-02T18:29:14.670Z,86.70
2019-01-02T18:31:44.417Z,87.40
2019-01-02T18:34:14.165Z,87.10
2019-01-02T18:36:43.898Z,89.70
2019-01-02T18:39:13.622Z,85.10
2019-01-02T18:41:43.518Z,86.10
2019-01-02T18:44:13.273Z,86.50
2019-01-02T18:46:43.009Z,88.50
2019-01-02T18:49:12.751Z,89.10
2019-01-02T18:51:42.458Z,90.30
2019-01-02T18:54:12.281Z,90.90
2019-01-02T18:56:42.048Z,90.30
2019-01-02T18:59:11.733Z,91.70
2019-01-02T19:01:41.607Z,91.70
2019-01-02T19:04:11.332Z,90.70
2019-01-02T19:06:41.077Z,91.50
2019-01-02T19:09:10.932Z,92.60
2019-01-02T19:11:40.683Z,88.60
2019-01-02T19:14:10.545Z,90.20
2019-01-02T19:16:40.230Z,89.70
2019-01-02T19:19:13.092Z,90.50
2019-01-02T19:21:42.798Z,86.70
2019-01-02T19:24:13.175Z,87.60
2019-01-02T19:26:43.285Z,88.50
2019-01-02T19:29:13.005Z,86.20
2019-01-02T19:31:42.686Z,86.50
2019-01-02T19:34:12.654Z,86.00
2019-01-02T19:36:42.340Z,86.10
2019-01-02T19:39:12.057Z,86.50
2019-01-02T19:41:41.886Z,86.80
2019-01-02T19:44:11.615Z,87.50
2019-01-02T19:46:41.443Z,88.20
2019-01-02T19:49:11.236Z,89.20
2019-01-02T19:51:40.980Z,87.80
2019-01-02T19:54:10.757Z,88.40
2019-01-02T19:56:40.537Z,90.40
2019-01-02T19:59:10.280Z,90.10
2019-01-02T20:01:40.032Z,90.70
2019-01-02T20:04:09.788Z,91.80
2019-01-02T20:06:39.551Z,87.80
2019-01-02T20:09:09.740Z,91.50
2019-01-02T20:11:39.532Z,89.20
2019-01-02T20:14:13.414Z,90.40
2019-01-02T20:16:43.492Z,91.10
2019-01-02T20:19:14.978Z,91.10
2019-01-02T20:21:44.927Z,91.60
2019-01-02T20:24:14.755Z,91.60
2019-01-02T20:26:47.239Z,91.80
2019-01-02T20:29:17.085Z,91.60
2019-01-02T20:31:46.918Z,91.20
2019-01-02T20:34:16.640Z,91.90
2019-01-02T20:36:46.555Z,91.10
2019-01-02T20:39:16.776Z,91.20
2019-01-02T20:41:46.545Z,90.90
2019-01-02T20:44:18.135Z,91.20
2019-01-02T20:46:48.319Z,89.70
2019-01-02T20:49:19.686Z,88.70
2019-01-02T20:51:49.806Z,90.00
2019-01-02T20:54:19.667Z,90.20
2019-01-02T20:56:49.506Z,90.10
2019-01-02T20:59:19.271Z,87.30
2019-01-02T21:01:49.071Z,90.10
2019-01-02T21:04:18.869Z,86.60
2019-01-02T21:06:48.699Z,85.60
2019-01-02T21:09:18.845Z,83.30
2019-01-02T21:11:48.642Z,83.00
2019-01-02T21:14:18.429Z,84.50
2019-01-02T21:16:55.248Z,85.20
2019-01-02T21:19:26.381Z,84.90
2019-01-02T21:21:56.276Z,86.10
2019-01-02T21:24:26.086Z,85.50
2019-01-02T21:26:55.898Z,87.20
2019-01-02T21:29:25.707Z,88.00
2019-01-02T21:31:55.585Z,87.60
2019-01-02T21:34:25.586Z,88.30
2019-01-02T21:36:56.187Z,90.10
2019-01-02T21:39:26.885Z,89.30
2019-01-02T21:41:56.714Z,89.40
2019-01-02T21:44:26.491Z,88.10
2019-01-02T21:46:56.404Z,90.00
2019-01-02T21:49:26.188Z,90.00
2019-01-02T21:51:55.954Z,84.30
2019-01-02T21:54:25.683Z,86.80
2019-01-02T21:56:55.502Z,83.20
2019-01-02T21:59:25.278Z,82.60
2019-01-02T22:01:55.018Z,79.80
2019-01-02T22:04:24.811Z,81.20
2019-01-02T22:06:55.008Z,77.90
2019-01-02T22:09:24.815Z,78.00
2019-01-02T22:11:55.232Z,76.60
2019-01-02T22:14:30.696Z,74.20
2019-01-02T22:17:00.651Z,73.00
2019-01-02T22:19:30.530Z,69.80
2019-01-02T22:22:00.334Z,70.50
2019-01-02T22:24:30.061Z,67.90
2019-01-02T22:26:59.811Z,67.40
2019-01-02T22:29:29.617Z,65.80
2019-01-02T22:31:59.491Z,66.80
2019-01-02T22:34:29.299Z,65.30
2019-01-02T22:36:59.162Z,63.60
2019-01-02T22:39:28.868Z,62.20
2019-01-02T22:41:58.612Z,63.10
2019-01-02T22:44:28.393Z,61.60
2019-01-02T22:46:58.158Z,61.00
2019-01-02T22:49:27.867Z,62.20
2019-01-02T22:51:57.887Z,63.10
2019-01-02T22:54:27.602Z,62.00
2019-01-02T22:56:57.541Z,64.20
2019-01-02T22:59:27.303Z,63.70
2019-01-02T23:02:05.591Z,63.80
2019-01-02T23:05:03.433Z,63.00
2019-01-02T23:07:50.750Z,62.70
2019-01-02T23:10:38.149Z,64.00
2019-01-02T23:13:25.523Z,62.20
2019-01-02T23:16:12.805Z,60.20
2019-01-02T23:19:00.082Z,61.40
2019-01-02T23:22:03.903Z,60.40
2019-01-02T23:25:04.753Z,59.40
2019-01-02T23:27:51.238Z,58.10
2019-01-02T23:30:38.659Z,56.90
2019-01-02T23:33:25.694Z,56.10
2019-01-02T23:36:23.512Z,56.90
2019-01-02T23:39:21.175Z,57.80
2019-01-02T23:42:24.693Z,55.40
2019-01-02T23:45:19.662Z,53.80
2019-01-02T23:48:07.103Z,52.70
2019-01-02T23:50:55.811Z,53.40
2019-01-02T23:53:47.187Z,51.20
2019-01-02T23:56:34.474Z,49.30
2019-01-02T23:59:21.702Z,51.30
